sensor_id;sensor_type;location;lat;lon;timestamp;P1;durP1;ratioP1;P2;durP2;ratioP2
46355;SDS011;32066;49.474;11.106;2024-03-06T00:00:33;17.02;;;10.73;;
46355;SDS011;32066;49.474;11.106;2024-03-06T00:03:02;16.17;;;11.05;;
46355;SDS011;32066;49.474;11.106;2024-03-06T00:05:33;15.73;;;10.93;;
46355;SDS011;32066;49.474;11.106;2024-03-06T00:08:02;15.25;;;10.85;;
46355;SDS011;32066;49.474;11.106;2024-03-06T00:10:31;16.33;;;11.57;;
46355;SDS011;32066;49.474;11.106;2024-03-06T00:13:01;14.88;;;10.35;;
46355;SDS011;32066;49.474;11.106;2024-03-06T00:15:30;17.23;;;11.05;;
46355;SDS011;32066;49.474;11.106;2024-03-06T00:17:59;15.75;;;11.57;;
46355;SDS011;32066;49.474;11.106;2024-03-06T00:20:29;17.73;;;11.85;;
46355;SDS011;32066;49.474;11.106;2024-03-06T00:23:00;15.38;;;11.05;;
46355;SDS011;32066;49.474;11.106;2024-03-06T00:25:29;16.85;;;11.43;;
46355;SDS011;32066;49.474;11.106;2024-03-06T00:27:57;17.88;;;11.50;;
46355;SDS011;32066;49.474;11.106;2024-03-06T00:30:26;15.10;;;11.02;;
46355;SDS011;32066;49.474;11.106;2024-03-06T00:32:52;17.27;;;11.68;;
46355;SDS011;32066;49.474;11.106;2024-03-06T00:35:21;15.32;;;11.60;;
46355;SDS011;32066;49.474;11.106;2024-03-06T00:37:50;17.20;;;12.38;;
46355;SDS011;32066;49.474;11.106;2024-03-06T00:40:22;16.33;;;11.25;;
46355;SDS011;32066;49.474;11.106;2024-03-06T00:42:50;16.65;;;11.57;;
46355;SDS011;32066;49.474;11.106;2024-03-06T00:45:19;16.35;;;10.95;;
46355;SDS011;32066;49.474;11.106;2024-03-06T00:47:47;16.33;;;11.82;;
46355;SDS011;32066;49.474;11.106;2024-03-06T00:50:16;16.10;;;11.70;;
46355;SDS011;32066;49.474;11.106;2024-03-06T00:52:47;16.60;;;11.05;;
46355;SDS011;32066;49.474;11.106;2024-03-06T00:55:16;15.63;;;10.98;;
46355;SDS011;32066;49.474;11.106;2024-03-06T00:57:47;17.33;;;11.70;;
46355;SDS011;32066;49.474;11.106;2024-03-06T01:00:17;18.13;;;11.40;;
46355;SDS011;32066;49.474;11.106;2024-03-06T01:02:46;16.70;;;11.85;;
46355;SDS011;32066;49.474;11.106;2024-03-06T01:05:14;16.33;;;11.85;;
46355;SDS011;32066;49.474;11.106;2024-03-06T01:07:44;15.30;;;11.73;;
46355;SDS011;32066;49.474;11.106;2024-03-06T01:10:13;16.08;;;11.27;;
46355;SDS011;32066;49.474;11.106;2024-03-06T01:12:41;17.55;;;12.25;;
46355;SDS011;32066;49.474;11.106;2024-03-06T01:15:13;17.63;;;12.10;;
46355;SDS011;32066;49.474;11.106;2024-03-06T01:17:42;16.35;;;11.73;;
46355;SDS011;32066;49.474;11.106;2024-03-06T01:20:08;17.55;;;12.05;;
46355;SDS011;32066;49.474;11.106;2024-03-06T01:22:37;17.70;;;11.93;;
46355;SDS011;32066;49.474;11.106;2024-03-06T01:25:06;19.13;;;12.55;;
46355;SDS011;32066;49.474;11.106;2024-03-06T01:27:35;18.15;;;12.18;;
46355;SDS011;32066;49.474;11.106;2024-03-06T01:30:04;17.90;;;12.82;;
46355;SDS011;32066;49.474;11.106;2024-03-06T01:32:36;17.58;;;12.48;;
46355;SDS011;32066;49.474;11.106;2024-03-06T01:35:05;17.45;;;12.00;;
46355;SDS011;32066;49.474;11.106;2024-03-06T01:37:35;17.88;;;12.98;;
46355;SDS011;32066;49.474;11.106;2024-03-06T01:40:04;18.98;;;12.50;;
46355;SDS011;32066;49.474;11.106;2024-03-06T01:42:34;17.63;;;12.18;;
46355;SDS011;32066;49.474;11.106;2024-03-06T01:45:03;17.00;;;12.30;;
46355;SDS011;32066;49.474;11.106;2024-03-06T01:47:33;20.05;;;12.95;;
46355;SDS011;32066;49.474;11.106;2024-03-06T01:50:04;18.40;;;13.23;;
46355;SDS011;32066;49.474;11.106;2024-03-06T01:52:35;17.33;;;12.27;;
46355;SDS011;32066;49.474;11.106;2024-03-06T01:55:04;20.13;;;12.80;;
46355;SDS011;32066;49.474;11.106;2024-03-06T01:57:34;18.45;;;12.25;;
46355;SDS011;32066;49.474;11.106;2024-03-06T02:00:03;17.88;;;12.32;;
46355;SDS011;32066;49.474;11.106;2024-03-06T02:02:36;16.85;;;12.13;;
46355;SDS011;32066;49.474;11.106;2024-03-06T02:05:04;16.65;;;11.90;;
46355;SDS011;32066;49.474;11.106;2024-03-06T02:07:33;18.38;;;12.43;;
46355;SDS011;32066;49.474;11.106;2024-03-06T02:10:03;17.50;;;12.30;;
46355;SDS011;32066;49.474;11.106;2024-03-06T02:12:32;17.73;;;12.88;;
46355;SDS011;32066;49.474;11.106;2024-03-06T02:15:00;17.75;;;12.88;;
46355;SDS011;32066;49.474;11.106;2024-03-06T02:17:31;18.75;;;13.38;;
46355;SDS011;32066;49.474;11.106;2024-03-06T02:20:02;18.77;;;12.90;;
46355;SDS011;32066;49.474;11.106;2024-03-06T02:22:35;18.25;;;12.45;;
46355;SDS011;32066;49.474;11.106;2024-03-06T02:25:04;18.33;;;13.00;;
46355;SDS011;32066;49.474;11.106;2024-03-06T02:27:34;21.48;;;13.38;;
46355;SDS011;32066;49.474;11.106;2024-03-06T02:30:03;17.48;;;12.63;;
46355;SDS011;32066;49.474;11.106;2024-03-06T02:32:32;20.55;;;12.07;;
46355;SDS011;32066;49.474;11.106;2024-03-06T02:35:01;19.63;;;12.90;;
46355;SDS011;32066;49.474;11.106;2024-03-06T02:37:36;18.55;;;13.20;;
46355;SDS011;32066;49.474;11.106;2024-03-06T02:40:05;17.88;;;12.43;;
46355;SDS011;32066;49.474;11.106;2024-03-06T02:42:36;17.98;;;12.45;;
46355;SDS011;32066;49.474;11.106;2024-03-06T02:45:07;18.85;;;13.23;;
46355;SDS011;32066;49.474;11.106;2024-03-06T02:47:36;19.17;;;13.50;;
46355;SDS011;32066;49.474;11.106;2024-03-06T02:50:05;19.08;;;12.45;;
46355;SDS011;32066;49.474;11.106;2024-03-06T02:52:38;19.45;;;13.88;;
46355;SDS011;32066;49.474;11.106;2024-03-06T02:55:07;18.35;;;13.50;;
46355;SDS011;32066;49.474;11.106;2024-03-06T02:57:36;20.08;;;13.07;;
46355;SDS011;32066;49.474;11.106;2024-03-06T03:00:05;21.85;;;13.60;;
46355;SDS011;32066;49.474;11.106;2024-03-06T03:02:38;18.95;;;13.45;;
46355;SDS011;32066;49.474;11.106;2024-03-06T03:05:07;20.70;;;13.40;;
46355;SDS011;32066;49.474;11.106;2024-03-06T03:07:39;19.60;;;13.82;;
46355;SDS011;32066;49.474;11.106;2024-03-06T03:10:08;19.80;;;13.35;;
46355;SDS011;32066;49.474;11.106;2024-03-06T03:12:38;21.33;;;14.32;;
46355;SDS011;32066;49.474;11.106;2024-03-06T03:15:07;19.45;;;13.68;;
46355;SDS011;32066;49.474;11.106;2024-03-06T03:17:36;20.45;;;13.30;;
46355;SDS011;32066;49.474;11.106;2024-03-06T03:20:05;21.58;;;14.35;;
46355;SDS011;32066;49.474;11.106;2024-03-06T03:22:40;20.98;;;14.80;;
46355;SDS011;32066;49.474;11.106;2024-03-06T03:25:09;20.17;;;14.07;;
46355;SDS011;32066;49.474;11.106;2024-03-06T03:27:38;20.08;;;14.32;;
46355;SDS011;32066;49.474;11.106;2024-03-06T03:30:09;23.60;;;15.57;;
46355;SDS011;32066;49.474;11.106;2024-03-06T03:32:38;20.00;;;14.60;;
46355;SDS011;32066;49.474;11.106;2024-03-06T03:35:07;20.02;;;14.95;;
46355;SDS011;32066;49.474;11.106;2024-03-06T03:37:36;21.70;;;15.98;;
46355;SDS011;32066;49.474;11.106;2024-03-06T03:40:08;21.77;;;14.98;;
46355;SDS011;32066;49.474;11.106;2024-03-06T03:42:38;22.17;;;14.82;;
46355;SDS011;32066;49.474;11.106;2024-03-06T03:45:06;22.23;;;15.18;;
46355;SDS011;32066;49.474;11.106;2024-03-06T03:47:36;21.83;;;14.65;;
46355;SDS011;32066;49.474;11.106;2024-03-06T03:50:08;21.33;;;15.23;;
46355;SDS011;32066;49.474;11.106;2024-03-06T03:52:38;21.77;;;14.73;;
46355;SDS011;32066;49.474;11.106;2024-03-06T03:55:11;24.00;;;15.98;;
46355;SDS011;32066;49.474;11.106;2024-03-06T03:57:40;22.20;;;15.30;;
46355;SDS011;32066;49.474;11.106;2024-03-06T04:00:09;23.70;;;16.13;;
46355;SDS011;32066;49.474;11.106;2024-03-06T04:02:38;22.95;;;16.13;;
46355;SDS011;32066;49.474;11.106;2024-03-06T04:05:07;24.58;;;17.17;;
46355;SDS011;32066;49.474;11.106;2024-03-06T04:07:36;24.67;;;16.40;;
46355;SDS011;32066;49.474;11.106;2024-03-06T04:10:05;24.42;;;16.63;;
46355;SDS011;32066;49.474;11.106;2024-03-06T04:12:38;24.80;;;16.50;;
46355;SDS011;32066;49.474;11.106;2024-03-06T04:15:07;24.25;;;16.50;;
46355;SDS011;32066;49.474;11.106;2024-03-06T04:17:37;25.48;;;16.33;;
46355;SDS011;32066;49.474;11.106;2024-03-06T04:20:06;24.73;;;16.20;;
46355;SDS011;32066;49.474;11.106;2024-03-06T04:22:37;24.35;;;16.67;;
46355;SDS011;32066;49.474;11.106;2024-03-06T04:25:05;25.30;;;17.17;;
46355;SDS011;32066;49.474;11.106;2024-03-06T04:27:34;25.27;;;17.13;;
46355;SDS011;32066;49.474;11.106;2024-03-06T04:30:06;24.65;;;17.10;;
46355;SDS011;32066;49.474;11.106;2024-03-06T04:32:36;24.27;;;16.90;;
46355;SDS011;32066;49.474;11.106;2024-03-06T04:35:05;27.88;;;18.92;;
46355;SDS011;32066;49.474;11.106;2024-03-06T04:37:35;27.48;;;18.50;;
46355;SDS011;32066;49.474;11.106;2024-03-06T04:40:04;26.65;;;18.88;;
46355;SDS011;32066;49.474;11.106;2024-03-06T04:42:35;27.42;;;18.60;;
46355;SDS011;32066;49.474;11.106;2024-03-06T04:45:08;27.48;;;18.88;;
46355;SDS011;32066;49.474;11.106;2024-03-06T04:47:39;29.60;;;18.95;;
46355;SDS011;32066;49.474;11.106;2024-03-06T04:50:08;27.25;;;18.25;;
46355;SDS011;32066;49.474;11.106;2024-03-06T04:52:38;30.33;;;19.88;;
46355;SDS011;32066;49.474;11.106;2024-03-06T04:55:07;29.02;;;18.98;;
46355;SDS011;32066;49.474;11.106;2024-03-06T04:57:38;28.05;;;18.55;;
46355;SDS011;32066;49.474;11.106;2024-03-06T05:00:10;29.38;;;18.75;;
46355;SDS011;32066;49.474;11.106;2024-03-06T05:02:40;30.17;;;19.10;;
46355;SDS011;32066;49.474;11.106;2024-03-06T05:05:09;31.10;;;20.08;;
46355;SDS011;32066;49.474;11.106;2024-03-06T05:07:37;31.98;;;21.13;;
46355;SDS011;32066;49.474;11.106;2024-03-06T05:10:07;31.63;;;20.67;;
46355;SDS011;32066;49.474;11.106;2024-03-06T05:12:36;30.77;;;19.60;;
46355;SDS011;32066;49.474;11.106;2024-03-06T05:15:05;30.23;;;20.55;;
46355;SDS011;32066;49.474;11.106;2024-03-06T05:17:37;32.92;;;21.13;;
46355;SDS011;32066;49.474;11.106;2024-03-06T05:20:06;32.85;;;20.92;;
46355;SDS011;32066;49.474;11.106;2024-03-06T05:22:35;32.28;;;21.92;;
46355;SDS011;32066;49.474;11.106;2024-03-06T05:25:04;32.30;;;20.23;;
46355;SDS011;32066;49.474;11.106;2024-03-06T05:27:33;32.40;;;21.50;;
46355;SDS011;32066;49.474;11.106;2024-03-06T05:30:02;31.55;;;20.23;;
46355;SDS011;32066;49.474;11.106;2024-03-06T05:32:33;31.13;;;20.85;;
46355;SDS011;32066;49.474;11.106;2024-03-06T05:35:05;33.85;;;22.25;;
46355;SDS011;32066;49.474;11.106;2024-03-06T05:37:35;34.65;;;21.20;;
46355;SDS011;32066;49.474;11.106;2024-03-06T05:40:04;34.00;;;21.42;;
46355;SDS011;32066;49.474;11.106;2024-03-06T05:42:34;31.25;;;22.15;;
46355;SDS011;32066;49.474;11.106;2024-03-06T05:45:03;32.42;;;21.23;;
46355;SDS011;32066;49.474;11.106;2024-03-06T05:47:38;31.77;;;21.73;;
46355;SDS011;32066;49.474;11.106;2024-03-06T05:50:07;36.13;;;21.80;;
46355;SDS011;32066;49.474;11.106;2024-03-06T05:52:36;32.45;;;21.17;;
46355;SDS011;32066;49.474;11.106;2024-03-06T05:55:05;30.75;;;20.60;;
46355;SDS011;32066;49.474;11.106;2024-03-06T05:57:34;32.25;;;21.52;;
46355;SDS011;32066;49.474;11.106;2024-03-06T06:00:04;32.78;;;20.83;;
46355;SDS011;32066;49.474;11.106;2024-03-06T06:02:39;33.45;;;22.45;;
46355;SDS011;32066;49.474;11.106;2024-03-06T06:05:08;35.33;;;21.88;;
46355;SDS011;32066;49.474;11.106;2024-03-06T06:07:36;36.17;;;22.63;;
46355;SDS011;32066;49.474;11.106;2024-03-06T06:10:06;40.08;;;22.90;;
46355;SDS011;32066;49.474;11.106;2024-03-06T06:12:35;33.20;;;22.08;;
46355;SDS011;32066;49.474;11.106;2024-03-06T06:15:05;32.80;;;21.85;;
46355;SDS011;32066;49.474;11.106;2024-03-06T06:17:35;33.33;;;21.33;;
46355;SDS011;32066;49.474;11.106;2024-03-06T06:20:07;40.25;;;23.98;;
46355;SDS011;32066;49.474;11.106;2024-03-06T06:22:40;34.20;;;21.80;;
46355;SDS011;32066;49.474;11.106;2024-03-06T06:25:08;37.60;;;23.08;;
46355;SDS011;32066;49.474;11.106;2024-03-06T06:27:37;35.53;;;22.50;;
46355;SDS011;32066;49.474;11.106;2024-03-06T06:30:06;34.22;;;21.95;;
46355;SDS011;32066;49.474;11.106;2024-03-06T06:32:37;36.65;;;24.35;;
46355;SDS011;32066;49.474;11.106;2024-03-06T06:35:08;37.40;;;12.23;;
46355;SDS011;32066;49.474;11.106;2024-03-06T06:37:38;43.67;;;25.75;;
46355;SDS011;32066;49.474;11.106;2024-03-06T06:40:08;44.08;;;27.58;;
46355;SDS011;32066;49.474;11.106;2024-03-06T06:42:43;43.28;;;26.65;;
46355;SDS011;32066;49.474;11.106;2024-03-06T06:45:14;43.35;;;26.45;;
46355;SDS011;32066;49.474;11.106;2024-03-06T06:47:43;41.72;;;26.52;;
46355;SDS011;32066;49.474;11.106;2024-03-06T06:50:15;40.72;;;25.77;;
46355;SDS011;32066;49.474;11.106;2024-03-06T06:52:47;44.55;;;26.40;;
46355;SDS011;32066;49.474;11.106;2024-03-06T06:55:16;41.90;;;25.98;;
46355;SDS011;32066;49.474;11.106;2024-03-06T06:57:48;43.42;;;26.48;;
46355;SDS011;32066;49.474;11.106;2024-03-06T07:00:17;45.72;;;27.77;;
46355;SDS011;32066;49.474;11.106;2024-03-06T07:02:48;44.63;;;27.17;;
46355;SDS011;32066;49.474;11.106;2024-03-06T07:05:19;42.15;;;25.80;;
46355;SDS011;32066;49.474;11.106;2024-03-06T07:07:48;43.75;;;26.30;;
46355;SDS011;32066;49.474;11.106;2024-03-06T07:10:17;44.45;;;27.38;;
46355;SDS011;32066;49.474;11.106;2024-03-06T07:12:45;42.92;;;26.80;;
46355;SDS011;32066;49.474;11.106;2024-03-06T07:15:14;44.88;;;26.65;;
46355;SDS011;32066;49.474;11.106;2024-03-06T07:17:42;43.10;;;26.52;;
46355;SDS011;32066;49.474;11.106;2024-03-06T07:20:11;46.67;;;27.08;;
46355;SDS011;32066;49.474;11.106;2024-03-06T07:22:42;41.92;;;26.85;;
46355;SDS011;32066;49.474;11.106;2024-03-06T07:25:12;44.22;;;27.05;;
46355;SDS011;32066;49.474;11.106;2024-03-06T07:27:41;43.50;;;26.95;;
46355;SDS011;32066;49.474;11.106;2024-03-06T07:30:10;43.95;;;25.90;;
46355;SDS011;32066;49.474;11.106;2024-03-06T07:32:39;46.55;;;27.98;;
46355;SDS011;32066;49.474;11.106;2024-03-06T07:35:08;39.75;;;25.25;;
46355;SDS011;32066;49.474;11.106;2024-03-06T07:37:37;40.72;;;25.15;;
46355;SDS011;32066;49.474;11.106;2024-03-06T07:40:09;39.63;;;23.27;;
46355;SDS011;32066;49.474;11.106;2024-03-06T07:42:38;38.33;;;22.95;;
46355;SDS011;32066;49.474;11.106;2024-03-06T07:45:07;38.33;;;23.75;;
46355;SDS011;32066;49.474;11.106;2024-03-06T07:47:37;37.08;;;21.88;;
46355;SDS011;32066;49.474;11.106;2024-03-06T07:50:07;35.25;;;21.42;;
46355;SDS011;32066;49.474;11.106;2024-03-06T07:52:36;34.15;;;20.83;;
46355;SDS011;32066;49.474;11.106;2024-03-06T07:55:05;33.13;;;20.27;;
46355;SDS011;32066;49.474;11.106;2024-03-06T07:57:37;33.75;;;19.85;;
46355;SDS011;32066;49.474;11.106;2024-03-06T08:00:08;32.03;;;20.17;;
46355;SDS011;32066;49.474;11.106;2024-03-06T08:02:39;34.45;;;19.70;;
46355;SDS011;32066;49.474;11.106;2024-03-06T08:05:12;32.33;;;19.92;;
46355;SDS011;32066;49.474;11.106;2024-03-06T08:07:40;30.63;;;18.35;;
46355;SDS011;32066;49.474;11.106;2024-03-06T08:10:13;30.05;;;19.13;;
46355;SDS011;32066;49.474;11.106;2024-03-06T08:12:44;32.17;;;18.83;;
46355;SDS011;32066;49.474;11.106;2024-03-06T08:15:14;31.55;;;18.73;;
46355;SDS011;32066;49.474;11.106;2024-03-06T08:17:43;28.83;;;17.30;;
46355;SDS011;32066;49.474;11.106;2024-03-06T08:20:12;31.95;;;18.70;;
46355;SDS011;32066;49.474;11.106;2024-03-06T08:22:41;29.17;;;18.02;;
46355;SDS011;32066;49.474;11.106;2024-03-06T08:25:13;30.92;;;18.50;;
46355;SDS011;32066;49.474;11.106;2024-03-06T08:27:42;31.05;;;17.75;;
46355;SDS011;32066;49.474;11.106;2024-03-06T08:30:11;29.85;;;17.65;;
46355;SDS011;32066;49.474;11.106;2024-03-06T08:32:40;31.50;;;18.20;;
46355;SDS011;32066;49.474;11.106;2024-03-06T08:35:09;29.65;;;17.63;;
46355;SDS011;32066;49.474;11.106;2024-03-06T08:37:39;28.70;;;17.02;;
46355;SDS011;32066;49.474;11.106;2024-03-06T08:40:08;30.33;;;17.83;;
46355;SDS011;32066;49.474;11.106;2024-03-06T08:42:42;28.63;;;17.90;;
46355;SDS011;32066;49.474;11.106;2024-03-06T08:45:13;29.48;;;17.95;;
46355;SDS011;32066;49.474;11.106;2024-03-06T08:47:42;31.23;;;17.13;;
46355;SDS011;32066;49.474;11.106;2024-03-06T08:50:11;29.35;;;18.33;;
46355;SDS011;32066;49.474;11.106;2024-03-06T08:52:41;28.75;;;17.27;;
46355;SDS011;32066;49.474;11.106;2024-03-06T08:55:10;28.58;;;17.50;;
46355;SDS011;32066;49.474;11.106;2024-03-06T08:57:38;27.98;;;16.80;;
46355;SDS011;32066;49.474;11.106;2024-03-06T09:00:12;30.48;;;18.02;;
46355;SDS011;32066;49.474;11.106;2024-03-06T09:02:42;27.98;;;16.70;;
46355;SDS011;32066;49.474;11.106;2024-03-06T09:05:11;29.42;;;17.33;;
46355;SDS011;32066;49.474;11.106;2024-03-06T09:07:40;28.60;;;16.90;;
46355;SDS011;32066;49.474;11.106;2024-03-06T09:10:09;28.58;;;17.20;;
46355;SDS011;32066;49.474;11.106;2024-03-06T09:12:39;28.33;;;18.52;;
46355;SDS011;32066;49.474;11.106;2024-03-06T09:15:11;28.60;;;16.02;;
46355;SDS011;32066;49.474;11.106;2024-03-06T09:17:39;29.63;;;17.23;;
46355;SDS011;32066;49.474;11.106;2024-03-06T09:20:10;30.38;;;17.55;;
46355;SDS011;32066;49.474;11.106;2024-03-06T09:22:39;28.55;;;17.48;;
46355;SDS011;32066;49.474;11.106;2024-03-06T09:25:08;28.55;;;16.58;;
46355;SDS011;32066;49.474;11.106;2024-03-06T09:27:38;34.75;;;18.48;;
46355;SDS011;32066;49.474;11.106;2024-03-06T09:30:11;35.30;;;17.85;;
46355;SDS011;32066;49.474;11.106;2024-03-06T09:32:40;30.33;;;18.45;;
46355;SDS011;32066;49.474;11.106;2024-03-06T09:35:10;30.65;;;17.67;;
46355;SDS011;32066;49.474;11.106;2024-03-06T09:37:39;32.28;;;19.63;;
46355;SDS011;32066;49.474;11.106;2024-03-06T09:40:08;32.50;;;18.52;;
46355;SDS011;32066;49.474;11.106;2024-03-06T09:42:43;30.55;;;17.63;;
46355;SDS011;32066;49.474;11.106;2024-03-06T09:45:12;30.25;;;17.88;;
46355;SDS011;32066;49.474;11.106;2024-03-06T09:47:41;33.95;;;19.15;;
46355;SDS011;32066;49.474;11.106;2024-03-06T09:50:11;34.92;;;19.70;;
46355;SDS011;32066;49.474;11.106;2024-03-06T09:52:45;31.02;;;17.83;;
46355;SDS011;32066;49.474;11.106;2024-03-06T09:55:17;29.58;;;18.17;;
46355;SDS011;32066;49.474;11.106;2024-03-06T09:57:48;31.25;;;18.88;;
46355;SDS011;32066;49.474;11.106;2024-03-06T10:00:17;26.92;;;17.23;;
46355;SDS011;32066;49.474;11.106;2024-03-06T10:02:48;32.70;;;18.10;;
46355;SDS011;32066;49.474;11.106;2024-03-06T10:05:25;32.17;;;18.52;;
46355;SDS011;32066;49.474;11.106;2024-03-06T10:07:56;31.42;;;18.58;;
46355;SDS011;32066;49.474;11.106;2024-03-06T10:10:25;32.40;;;18.58;;
46355;SDS011;32066;49.474;11.106;2024-03-06T10:12:56;34.45;;;18.83;;
46355;SDS011;32066;49.474;11.106;2024-03-06T10:15:25;28.88;;;18.35;;
46355;SDS011;32066;49.474;11.106;2024-03-06T10:20:39;31.35;;;17.80;;
46355;SDS011;32066;49.474;11.106;2024-03-06T10:23:09;32.17;;;17.58;;
46355;SDS011;32066;49.474;11.106;2024-03-06T10:25:37;31.80;;;17.63;;
46355;SDS011;32066;49.474;11.106;2024-03-06T10:28:09;29.20;;;17.42;;
46355;SDS011;32066;49.474;11.106;2024-03-06T10:30:39;30.42;;;16.95;;
46355;SDS011;32066;49.474;11.106;2024-03-06T10:33:11;30.27;;;18.45;;
46355;SDS011;32066;49.474;11.106;2024-03-06T10:35:41;30.35;;;18.20;;
46355;SDS011;32066;49.474;11.106;2024-03-06T10:38:10;32.10;;;18.30;;
46355;SDS011;32066;49.474;11.106;2024-03-06T10:40:40;33.70;;;17.67;;
46355;SDS011;32066;49.474;11.106;2024-03-06T10:43:14;29.65;;;17.63;;
46355;SDS011;32066;49.474;11.106;2024-03-06T10:45:46;30.70;;;18.38;;
46355;SDS011;32066;49.474;11.106;2024-03-06T10:48:16;29.38;;;17.33;;
46355;SDS011;32066;49.474;11.106;2024-03-06T10:50:46;30.92;;;18.27;;
46355;SDS011;32066;49.474;11.106;2024-03-06T10:53:17;29.00;;;16.75;;
46355;SDS011;32066;49.474;11.106;2024-03-06T10:55:49;28.27;;;16.77;;
46355;SDS011;32066;49.474;11.106;2024-03-06T10:58:20;29.50;;;17.00;;
46355;SDS011;32066;49.474;11.106;2024-03-06T11:00:50;28.33;;;16.73;;
46355;SDS011;32066;49.474;11.106;2024-03-06T11:03:22;31.08;;;17.27;;
46355;SDS011;32066;49.474;11.106;2024-03-06T11:05:55;28.25;;;16.38;;
46355;SDS011;32066;49.474;11.106;2024-03-06T11:08:24;27.50;;;16.05;;
46355;SDS011;32066;49.474;11.106;2024-03-06T11:10:54;28.52;;;16.35;;
46355;SDS011;32066;49.474;11.106;2024-03-06T11:13:52;25.77;;;15.13;;
46355;SDS011;32066;49.474;11.106;2024-03-06T11:16:26;26.70;;;15.82;;
46355;SDS011;32066;49.474;11.106;2024-03-06T11:21:33;23.75;;;13.90;;
46355;SDS011;32066;49.474;11.106;2024-03-06T11:24:12;24.92;;;14.43;;
46355;SDS011;32066;49.474;11.106;2024-03-06T11:26:54;25.42;;;15.40;;
46355;SDS011;32066;49.474;11.106;2024-03-06T11:29:32;26.63;;;15.60;;
46355;SDS011;32066;49.474;11.106;2024-03-06T11:32:38;25.90;;;14.73;;
46355;SDS011;32066;49.474;11.106;2024-03-06T11:35:27;25.33;;;15.20;;
46355;SDS011;32066;49.474;11.106;2024-03-06T11:37:55;24.80;;;14.15;;
46355;SDS011;32066;49.474;11.106;2024-03-06T11:40:24;27.35;;;14.88;;
46355;SDS011;32066;49.474;11.106;2024-03-06T11:42:53;21.70;;;14.02;;
46355;SDS011;32066;49.474;11.106;2024-03-06T11:45:22;25.75;;;15.10;;
46355;SDS011;32066;49.474;11.106;2024-03-06T11:47:59;27.52;;;15.02;;
46355;SDS011;32066;49.474;11.106;2024-03-06T11:50:29;24.65;;;14.65;;
46355;SDS011;32066;49.474;11.106;2024-03-06T11:52:58;23.88;;;15.05;;
46355;SDS011;32066;49.474;11.106;2024-03-06T11:55:27;25.27;;;15.18;;
46355;SDS011;32066;49.474;11.106;2024-03-06T11:57:56;23.50;;;14.93;;
46355;SDS011;32066;49.474;11.106;2024-03-06T12:00:25;25.88;;;15.45;;
46355;SDS011;32066;49.474;11.106;2024-03-06T12:02:53;27.77;;;16.00;;
46355;SDS011;32066;49.474;11.106;2024-03-06T12:05:24;23.65;;;15.07;;
46355;SDS011;32066;49.474;11.106;2024-03-06T12:07:53;24.83;;;15.23;;
46355;SDS011;32066;49.474;11.106;2024-03-06T12:10:22;24.67;;;14.70;;
46355;SDS011;32066;49.474;11.106;2024-03-06T12:12:50;23.17;;;13.82;;
46355;SDS011;32066;49.474;11.106;2024-03-06T12:15:19;23.63;;;14.25;;
46355;SDS011;32066;49.474;11.106;2024-03-06T12:17:48;25.77;;;15.00;;
46355;SDS011;32066;49.474;11.106;2024-03-06T12:20:17;22.88;;;13.48;;
46355;SDS011;32066;49.474;11.106;2024-03-06T12:22:50;20.67;;;13.50;;
46355;SDS011;32066;49.474;11.106;2024-03-06T12:25:21;24.80;;;14.63;;
46355;SDS011;32066;49.474;11.106;2024-03-06T12:27:51;22.50;;;13.05;;
46355;SDS011;32066;49.474;11.106;2024-03-06T12:30:21;20.85;;;13.20;;
46355;SDS011;32066;49.474;11.106;2024-03-06T12:32:56;21.45;;;13.48;;
46355;SDS011;32066;49.474;11.106;2024-03-06T12:35:29;22.10;;;12.88;;
46355;SDS011;32066;49.474;11.106;2024-03-06T12:38:01;23.60;;;14.02;;
46355;SDS011;32066;49.474;11.106;2024-03-06T12:40:39;22.40;;;13.40;;
46355;SDS011;32066;49.474;11.106;2024-03-06T12:43:08;24.15;;;14.25;;
46355;SDS011;32066;49.474;11.106;2024-03-06T12:45:37;25.02;;;14.65;;
46355;SDS011;32066;49.474;11.106;2024-03-06T12:48:06;24.92;;;14.63;;
46355;SDS011;32066;49.474;11.106;2024-03-06T12:50:35;23.45;;;14.52;;
46355;SDS011;32066;49.474;11.106;2024-03-06T12:53:06;23.98;;;13.52;;
46355;SDS011;32066;49.474;11.106;2024-03-06T12:55:35;24.42;;;14.73;;
46355;SDS011;32066;49.474;11.106;2024-03-06T12:58:04;22.02;;;12.73;;
46355;SDS011;32066;49.474;11.106;2024-03-06T13:00:33;23.15;;;13.20;;
46355;SDS011;32066;49.474;11.106;2024-03-06T13:03:01;21.30;;;12.93;;
46355;SDS011;32066;49.474;11.106;2024-03-06T13:05:30;23.42;;;12.95;;
46355;SDS011;32066;49.474;11.106;2024-03-06T13:07:59;21.77;;;13.43;;
46355;SDS011;32066;49.474;11.106;2024-03-06T13:10:30;20.98;;;12.77;;
46355;SDS011;32066;49.474;11.106;2024-03-06T13:13:00;20.23;;;12.52;;
46355;SDS011;32066;49.474;11.106;2024-03-06T13:15:29;24.48;;;12.63;;
46355;SDS011;32066;49.474;11.106;2024-03-06T13:17:59;24.95;;;14.18;;
46355;SDS011;32066;49.474;11.106;2024-03-06T13:20:28;22.38;;;13.32;;
46355;SDS011;32066;49.474;11.106;2024-03-06T13:22:57;24.05;;;13.57;;
46355;SDS011;32066;49.474;11.106;2024-03-06T13:25:26;21.88;;;13.15;;
46355;SDS011;32066;49.474;11.106;2024-03-06T13:27:59;22.33;;;13.75;;
46355;SDS011;32066;49.474;11.106;2024-03-06T13:30:28;24.00;;;13.98;;
46355;SDS011;32066;49.474;11.106;2024-03-06T13:32:57;24.73;;;14.10;;
46355;SDS011;32066;49.474;11.106;2024-03-06T13:35:26;23.42;;;14.23;;
46355;SDS011;32066;49.474;11.106;2024-03-06T13:37:55;22.38;;;13.57;;
46355;SDS011;32066;49.474;11.106;2024-03-06T13:40:24;23.92;;;14.38;;
46355;SDS011;32066;49.474;11.106;2024-03-06T13:42:53;22.77;;;13.35;;
46355;SDS011;32066;49.474;11.106;2024-03-06T13:45:25;21.98;;;13.90;;
46355;SDS011;32066;49.474;11.106;2024-03-06T13:47:54;24.52;;;13.43;;
46355;SDS011;32066;49.474;11.106;2024-03-06T13:50:23;22.40;;;13.93;;
46355;SDS011;32066;49.474;11.106;2024-03-06T13:52:53;22.45;;;13.82;;
46355;SDS011;32066;49.474;11.106;2024-03-06T13:55:22;22.17;;;13.60;;
46355;SDS011;32066;49.474;11.106;2024-03-06T13:57:53;27.70;;;15.07;;
46355;SDS011;32066;49.474;11.106;2024-03-06T14:00:25;24.67;;;14.43;;
46355;SDS011;32066;49.474;11.106;2024-03-06T14:02:55;26.58;;;15.18;;
46355;SDS011;32066;49.474;11.106;2024-03-06T14:05:23;24.35;;;14.10;;
46355;SDS011;32066;49.474;11.106;2024-03-06T14:07:53;26.48;;;14.43;;
46355;SDS011;32066;49.474;11.106;2024-03-06T14:10:22;24.48;;;15.25;;
46355;SDS011;32066;49.474;11.106;2024-03-06T14:12:51;22.25;;;13.88;;
46355;SDS011;32066;49.474;11.106;2024-03-06T14:15:21;24.60;;;13.85;;
46355;SDS011;32066;49.474;11.106;2024-03-06T14:17:53;24.67;;;13.98;;
46355;SDS011;32066;49.474;11.106;2024-03-06T14:20:22;24.98;;;14.43;;
46355;SDS011;32066;49.474;11.106;2024-03-06T14:22:51;23.30;;;14.23;;
46355;SDS011;32066;49.474;11.106;2024-03-06T14:25:20;23.17;;;14.68;;
46355;SDS011;32066;49.474;11.106;2024-03-06T14:27:49;21.77;;;13.60;;
46355;SDS011;32066;49.474;11.106;2024-03-06T14:30:17;22.75;;;13.70;;